createdAt,value
2022-08-19T00:01:37.939Z,70.90
2022-08-19T00:04:10.138Z,71.06
2022-08-19T00:06:39.540Z,70.53
2022-08-19T00:09:09.790Z,70.54
2022-08-19T00:11:38.436Z,70.21
2022-08-19T00:14:10.736Z,70.43
2022-08-19T00:16:39.604Z,71.15
2022-08-19T00:19:06.751Z,70.80
2022-08-19T00:21:33.287Z,70.91
2022-08-19T00:24:00.491Z,71.37
2022-08-19T00:26:29.274Z,72.34
2022-08-19T00:28:56.380Z,72.69
2022-08-19T00:31:23.288Z,72.73
2022-08-19T00:33:52.343Z,72.74
2022-08-19T00:36:18.836Z,73.05
2022-08-19T00:38:45.511Z,72.48
2022-08-19T00:41:18.943Z,73.10
2022-08-19T00:44:07.736Z,72.78
2022-08-19T00:46:37.554Z,72.81
2022-08-19T00:49:10.714Z,73.05
2022-08-19T00:51:37.726Z,72.44
2022-08-19T00:54:04.672Z,72.60
2022-08-19T00:56:32.144Z,72.44
2022-08-19T00:59:00.391Z,72.77
2022-08-19T01:01:27.297Z,73.50
2022-08-19T01:03:56.784Z,73.12
2022-08-19T01:06:25.213Z,72.60
2022-08-19T01:08:51.992Z,72.46
2022-08-19T01:11:18.615Z,73.32
2022-08-19T01:13:49.783Z,74.33
2022-08-19T01:16:18.587Z,74.92
2022-08-19T01:18:45.367Z,74.48
2022-08-19T01:21:22.813Z,74.35
2022-08-19T01:23:49.479Z,73.75
2022-08-19T01:26:20.048Z,73.86
2022-08-19T01:28:48.675Z,73.84
2022-08-19T01:34:01.547Z,73.37
2022-08-19T01:36:32.606Z,73.30
2022-08-19T01:39:00.709Z,73.40
2022-08-19T01:41:27.490Z,74.57
2022-08-19T01:44:13.886Z,75.32
2022-08-19T01:46:41.835Z,74.72
2022-08-19T01:49:08.934Z,74.50
2022-08-19T01:51:39.929Z,74.21
2022-08-19T01:54:07.823Z,74.50
2022-08-19T01:56:34.333Z,75.26
2022-08-19T01:59:04.409Z,76.33
2022-08-19T02:01:35.722Z,75.67
2022-08-19T02:04:03.061Z,75.29
2022-08-19T02:06:29.938Z,75.05
2022-08-19T02:08:57.336Z,75.15
2022-08-19T02:11:32.196Z,75.31
2022-08-19T02:13:59.917Z,75.06
2022-08-19T02:16:26.505Z,75.14
2022-08-19T02:18:53.009Z,76.02
2022-08-19T02:21:22.591Z,76.35
2022-08-19T02:23:50.097Z,76.82
2022-08-19T02:26:17.758Z,75.82
2022-08-19T02:28:44.432Z,75.83
2022-08-19T02:31:13.008Z,76.33
2022-08-19T02:33:40.001Z,76.24
2022-08-19T02:36:07.886Z,76.84
2022-08-19T02:38:34.440Z,76.71
2022-08-19T02:41:04.316Z,76.03
2022-08-19T02:43:33.781Z,76.48
2022-08-19T02:46:01.382Z,77.11
2022-08-19T02:48:27.871Z,77.63
2022-08-19T02:50:56.363Z,77.28
2022-08-19T02:53:25.686Z,76.86
2022-08-19T02:55:52.916Z,76.47
2022-08-19T02:58:20.779Z,76.88
2022-08-19T03:00:50.387Z,76.78
2022-08-19T03:03:17.761Z,76.46
2022-08-19T03:05:47.118Z,76.05
2022-08-19T03:08:22.892Z,76.53
2022-08-19T03:10:49.477Z,76.10
2022-08-19T03:13:18.526Z,76.42
2022-08-19T03:15:48.304Z,76.54
2022-08-19T03:18:15.618Z,77.05
2022-08-19T03:20:50.475Z,76.38
2022-08-19T03:23:17.711Z,76.62
2022-08-19T03:25:47.556Z,76.83
2022-08-19T03:28:29.371Z,76.31
2022-08-19T03:31:45.110Z,76.89
2022-08-19T03:33:56.125Z,76.65
2022-08-19T03:36:26.782Z,76.46
2022-08-19T03:39:00.129Z,77.64
2022-08-19T03:41:34.375Z,76.98
2022-08-19T03:44:18.019Z,77.02
2022-08-19T03:46:46.511Z,78.15
2022-08-19T03:49:14.372Z,78.10
2022-08-19T03:51:42.588Z,78.28
2022-08-19T03:54:11.444Z,78.21
2022-08-19T03:56:39.432Z,77.21
2022-08-19T03:59:08.407Z,77.38
2022-08-19T04:01:36.240Z,77.21
2022-08-19T04:04:04.859Z,77.34
2022-08-19T04:06:39.655Z,77.72
2022-08-19T04:09:09.551Z,77.84
2022-08-19T04:11:44.570Z,77.49
2022-08-19T04:14:14.947Z,77.31
2022-08-19T04:16:42.097Z,77.35
2022-08-19T04:19:08.820Z,77.45
2022-08-19T04:21:35.778Z,77.78
2022-08-19T04:24:03.832Z,77.68
2022-08-19T04:26:34.865Z,77.76
2022-08-19T04:29:09.183Z,77.57
2022-08-19T04:31:38.462Z,77.75
2022-08-19T04:34:07.603Z,78.13
2022-08-19T04:36:36.903Z,77.94
2022-08-19T04:39:08.449Z,78.14
2022-08-19T04:41:53.527Z,76.71
2022-08-19T04:44:20.413Z,77.97
2022-08-19T04:46:51.010Z,77.97
2022-08-19T04:49:23.140Z,77.99
2022-08-19T04:51:52.186Z,78.04
2022-08-19T04:54:37.080Z,78.32
2022-08-19T04:57:07.438Z,78.59
2022-08-19T04:59:34.453Z,78.62
2022-08-19T05:02:00.990Z,78.49
2022-08-19T05:04:29.037Z,78.75
2022-08-19T05:07:00.070Z,79.51
2022-08-19T05:09:55.534Z,79.52
2022-08-19T05:12:16.422Z,79.74
2022-08-19T05:14:42.911Z,79.38
2022-08-19T05:17:26.529Z,79.73
2022-08-19T05:20:26.501Z,79.97
2022-08-19T05:22:53.339Z,80.07
2022-08-19T05:25:21.423Z,81.38
2022-08-19T05:27:48.595Z,81.56
2022-08-19T05:30:15.887Z,81.98
2022-08-19T05:32:42.625Z,82.59
2022-08-19T05:35:10.404Z,82.30
2022-08-19T05:37:37.050Z,82.59
2022-08-19T05:40:04.356Z,83.14
2022-08-19T05:42:31.465Z,83.12
2022-08-19T05:44:59.026Z,83.47
2022-08-19T05:47:25.618Z,82.93
2022-08-19T05:49:52.417Z,83.29
2022-08-19T05:52:25.751Z,83.22
2022-08-19T05:54:55.752Z,83.56
2022-08-19T05:57:22.864Z,83.50
2022-08-19T05:59:53.029Z,83.50
2022-08-19T06:02:28.906Z,84.03
2022-08-19T06:04:55.451Z,84.17
2022-08-19T06:07:22.019Z,84.21
2022-08-19T06:10:00.468Z,84.58
2022-08-19T06:12:35.543Z,85.23
2022-08-19T06:15:07.970Z,85.53
2022-08-19T06:17:35.980Z,85.27
2022-08-19T06:20:05.630Z,85.57
2022-08-19T06:22:32.163Z,86.01
2022-08-19T06:24:58.785Z,85.97
2022-08-19T06:27:25.430Z,86.59
2022-08-19T06:29:51.948Z,86.27
2022-08-19T06:32:19.894Z,86.75
2022-08-19T06:34:46.574Z,86.51
2022-08-19T06:37:13.151Z,86.94
2022-08-19T06:39:41.982Z,87.26
2022-08-19T06:42:12.205Z,87.39
2022-08-19T06:44:43.269Z,87.66
2022-08-19T06:47:14.556Z,87.92
2022-08-19T06:49:49.996Z,88.26
2022-08-19T06:52:16.878Z,88.21
2022-08-19T06:54:53.708Z,87.71
2022-08-19T06:57:25.119Z,88.36
2022-08-19T06:59:52.188Z,88.29
2022-08-19T07:02:19.426Z,88.28
2022-08-19T07:04:46.844Z,88.05
2022-08-19T07:07:20.317Z,88.55
2022-08-19T07:10:00.042Z,88.65
2022-08-19T07:12:32.263Z,88.84
2022-08-19T07:14:59.060Z,89.14
2022-08-19T07:17:26.820Z,89.07
2022-08-19T07:19:54.146Z,89.29
2022-08-19T07:22:23.762Z,89.24
2022-08-19T07:24:52.135Z,89.81
2022-08-19T07:27:22.523Z,89.09
2022-08-19T07:29:57.314Z,89.34
2022-08-19T07:32:28.181Z,89.21
2022-08-19T07:34:56.361Z,89.65
2022-08-19T07:37:24.255Z,89.14
2022-08-19T07:39:50.840Z,89.17
2022-08-19T07:42:18.911Z,89.84
2022-08-19T07:44:50.330Z,90.12
2022-08-19T07:47:49.170Z,89.36
2022-08-19T07:50:07.755Z,89.41
2022-08-19T07:52:36.767Z,89.43
2022-08-19T07:55:05.268Z,89.14
2022-08-19T07:57:31.899Z,89.06
2022-08-19T07:59:58.478Z,88.94
2022-08-19T08:02:25.044Z,88.88
2022-08-19T08:05:10.482Z,88.74
2022-08-19T08:07:55.764Z,88.59
2022-08-19T08:10:24.225Z,88.74
2022-08-19T08:13:09.844Z,88.65
2022-08-19T08:15:42.582Z,89.01
2022-08-19T08:18:11.509Z,89.23
2022-08-19T08:20:39.171Z,88.48
2022-08-19T08:23:25.692Z,87.52
2022-08-19T08:25:57.933Z,88.66
2022-08-19T08:28:26.164Z,88.87
2022-08-19T08:30:56.529Z,88.81
2022-08-19T08:33:32.671Z,89.28
2022-08-19T08:35:59.952Z,88.99
2022-08-19T08:38:26.546Z,88.64
2022-08-19T08:41:07.547Z,88.69
2022-08-19T08:43:42.877Z,88.73
2022-08-19T08:46:16.238Z,88.65
2022-08-19T08:49:09.802Z,88.79
2022-08-19T08:51:59.793Z,88.44
2022-08-19T08:54:32.902Z,88.42
2022-08-19T08:57:03.281Z,88.00
2022-08-19T08:59:34.507Z,88.00
2022-08-19T09:02:01.412Z,88.12
2022-08-19T09:04:28.756Z,87.60
2022-08-19T09:07:35.396Z,87.43
2022-08-19T09:10:22.944Z,87.45
2022-08-19T09:13:16.799Z,87.44
2022-08-19T09:15:52.157Z,87.42
2022-08-19T09:18:19.643Z,87.01
2022-08-19T09:20:50.288Z,87.01
2022-08-19T09:23:16.876Z,87.05
2022-08-19T09:25:43.426Z,87.01
2022-08-19T09:28:15.166Z,86.71
2022-08-19T09:30:49.347Z,87.16
2022-08-19T09:33:17.025Z,87.13
2022-08-19T09:35:49.528Z,87.04
2022-08-19T09:38:19.571Z,87.24
2022-08-19T09:40:46.102Z,86.56
2022-08-19T09:43:13.469Z,86.45
2022-08-19T09:45:40.869Z,86.21
2022-08-19T09:48:07.446Z,86.53
2022-08-19T09:50:39.386Z,86.08
2022-08-19T09:53:19.357Z,86.10
2022-08-19T09:55:45.975Z,85.71
2022-08-19T09:58:12.877Z,86.20
2022-08-19T10:00:39.483Z,86.18
2022-08-19T10:03:05.988Z,85.74
2022-08-19T10:05:54.611Z,85.66
2022-08-19T10:08:29.019Z,85.10
2022-08-19T10:10:57.000Z,85.76
2022-08-19T10:13:29.349Z,85.76
2022-08-19T10:15:58.131Z,84.55
2022-08-19T10:18:26.119Z,84.65
2022-08-19T10:20:54.461Z,84.37
2022-08-19T10:23:21.995Z,84.48
2022-08-19T10:25:50.497Z,83.44
2022-08-19T10:28:19.509Z,82.67
2022-08-19T10:30:47.219Z,83.03
2022-08-19T10:33:14.885Z,83.01
2022-08-19T10:35:42.525Z,83.04
2022-08-19T10:38:22.903Z,83.37
2022-08-19T10:40:59.024Z,83.21
2022-08-19T10:43:25.852Z,83.04
2022-08-19T10:46:00.225Z,82.78
2022-08-19T10:48:26.812Z,83.04
2022-08-19T10:51:12.403Z,82.81
2022-08-19T10:53:50.480Z,82.58
2022-08-19T10:56:36.367Z,82.02
2022-08-19T10:59:04.232Z,81.82
2022-08-19T11:01:34.003Z,81.74
2022-08-19T11:04:02.739Z,81.23
2022-08-19T11:06:30.240Z,81.35
2022-08-19T11:08:57.528Z,81.68
2022-08-19T11:11:24.059Z,81.08
2022-08-19T11:13:51.006Z,81.11
2022-08-19T11:16:23.216Z,79.97
2022-08-19T11:18:52.589Z,80.60
2022-08-19T11:21:28.553Z,80.12
2022-08-19T11:23:58.132Z,79.59
2022-08-19T11:26:25.888Z,79.67
2022-08-19T11:28:55.015Z,80.39
2022-08-19T11:31:24.880Z,79.03
2022-08-19T11:33:58.304Z,79.74
2022-08-19T11:36:24.852Z,78.70
2022-08-19T11:38:51.703Z,78.06
2022-08-19T11:41:20.341Z,78.25
2022-08-19T11:43:47.135Z,77.45
2022-08-19T11:46:16.354Z,76.68
2022-08-19T11:48:43.555Z,77.56
2022-08-19T11:51:13.909Z,76.77
2022-08-19T11:53:40.789Z,74.37
2022-08-19T11:56:08.585Z,76.01
2022-08-19T11:58:36.023Z,72.48
2022-08-19T12:01:05.948Z,72.45
2022-08-19T12:03:32.502Z,72.55
2022-08-19T12:05:59.069Z,72.70
2022-08-19T12:08:25.560Z,72.18
2022-08-19T12:10:52.062Z,73.32
2022-08-19T12:13:19.352Z,72.68
2022-08-19T12:15:48.417Z,72.67
2022-08-19T12:18:15.309Z,72.13
2022-08-19T12:20:43.392Z,72.28
2022-08-19T12:23:10.795Z,73.36
2022-08-19T12:25:38.694Z,72.62
2022-08-19T12:28:05.263Z,72.40
2022-08-19T12:30:31.830Z,71.82
2022-08-19T12:32:58.367Z,72.48
2022-08-19T12:35:24.874Z,73.01
2022-08-19T12:37:56.775Z,71.66
2022-08-19T12:40:26.527Z,70.87
2022-08-19T12:42:54.248Z,72.69
2022-08-19T12:45:20.915Z,71.76
2022-08-19T12:47:47.731Z,71.63
2022-08-19T12:50:16.490Z,71.38
2022-08-19T12:52:43.365Z,72.14
2022-08-19T12:55:11.996Z,72.07
2022-08-19T12:57:39.042Z,72.26
2022-08-19T13:00:14.605Z,72.72
2022-08-19T13:02:45.353Z,72.47
2022-08-19T13:05:16.847Z,72.12
2022-08-19T13:07:44.795Z,72.15
2022-08-19T13:10:16.240Z,72.47
2022-08-19T13:12:43.359Z,72.69
2022-08-19T13:15:11.638Z,73.63
2022-08-19T13:17:39.551Z,74.05
2022-08-19T13:20:09.007Z,75.10
2022-08-19T13:22:36.895Z,75.44
2022-08-19T13:25:05.057Z,75.93
2022-08-19T13:27:31.659Z,77.21
2022-08-19T13:30:16.772Z,77.81
2022-08-19T13:33:01.819Z,77.06
2022-08-19T13:35:28.362Z,77.02
2022-08-19T13:37:54.978Z,77.39
2022-08-19T13:40:24.845Z,78.61
2022-08-19T13:42:55.423Z,79.00
2022-08-19T13:45:25.137Z,79.54
2022-08-19T13:47:59.160Z,79.45
2022-08-19T13:50:32.253Z,78.95
2022-08-19T13:52:59.420Z,78.73
2022-08-19T13:55:27.697Z,78.64
2022-08-19T13:57:57.407Z,78.28
2022-08-19T14:00:27.089Z,78.41
2022-08-19T14:02:56.696Z,78.33
2022-08-19T14:05:24.050Z,78.06
2022-08-19T14:07:50.633Z,78.00
2022-08-19T14:10:18.080Z,78.06
2022-08-19T14:12:44.643Z,78.96
2022-08-19T14:15:12.642Z,78.71
2022-08-19T14:17:40.776Z,77.78
2022-08-19T14:20:10.430Z,77.81
2022-08-19T14:22:40.565Z,76.66
2022-08-19T14:25:09.821Z,75.26
2022-08-19T14:27:38.065Z,74.17
2022-08-19T14:30:06.313Z,75.07
2022-08-19T14:32:32.850Z,71.59
2022-08-19T14:34:59.500Z,71.65
2022-08-19T14:37:26.248Z,71.75
2022-08-19T14:39:55.139Z,71.64
2022-08-19T14:42:21.727Z,71.05
2022-08-19T14:44:48.215Z,71.28
2022-08-19T14:47:15.043Z,71.67
2022-08-19T14:49:43.938Z,71.79
2022-08-19T14:52:14.897Z,71.75
2022-08-19T14:54:41.404Z,71.69
2022-08-19T14:57:08.184Z,71.84
2022-08-19T14:59:35.828Z,72.57
2022-08-19T15:02:33.433Z,72.21
2022-08-19T15:04:58.512Z,71.67
2022-08-19T15:07:28.290Z,70.96
2022-08-19T15:09:56.912Z,71.26
2022-08-19T15:12:23.472Z,70.58
2022-08-19T15:14:51.863Z,70.93
2022-08-19T15:17:21.819Z,70.71
2022-08-19T15:19:48.342Z,71.70
2022-08-19T15:22:15.155Z,72.57
2022-08-19T15:24:48.123Z,71.73
2022-08-19T15:27:14.821Z,72.61
2022-08-19T15:29:43.751Z,70.95
2022-08-19T15:32:10.287Z,70.74
2022-08-19T15:34:36.825Z,70.41
2022-08-19T15:37:06.100Z,70.05
2022-08-19T15:39:33.171Z,71.93
2022-08-19T15:42:00.628Z,77.44
2022-08-19T15:44:27.858Z,79.47
2022-08-19T15:46:54.437Z,79.98
2022-08-19T15:49:21.872Z,78.92
2022-08-19T15:51:51.905Z,79.17
2022-08-19T15:54:21.705Z,81.29
2022-08-19T15:57:07.935Z,81.83
2022-08-19T15:59:54.276Z,82.56
2022-08-19T16:02:42.300Z,84.37
2022-08-19T16:05:29.763Z,85.43
2022-08-19T16:07:56.963Z,84.95
2022-08-19T16:10:26.344Z,85.99
2022-08-19T16:12:55.352Z,87.44
2022-08-19T16:15:21.983Z,87.22
2022-08-19T16:17:55.418Z,86.79
2022-08-19T16:20:27.335Z,88.03
2022-08-19T16:22:54.345Z,87.67
2022-08-19T16:25:26.488Z,87.35
2022-08-19T16:28:06.226Z,85.99
2022-08-19T16:30:35.305Z,87.11
2022-08-19T16:33:01.806Z,87.54
2022-08-19T16:35:28.384Z,87.16
2022-08-19T16:37:55.003Z,85.91
2022-08-19T16:40:22.564Z,86.26
2022-08-19T16:42:49.477Z,86.41
2022-08-19T16:45:19.437Z,86.73
2022-08-19T16:47:45.967Z,86.22
2022-08-19T16:50:12.566Z,85.99
2022-08-19T16:52:39.065Z,86.70
2022-08-19T16:55:07.434Z,87.10
2022-08-19T16:57:35.550Z,86.74
2022-08-19T17:00:08.980Z,87.52
2022-08-19T17:02:36.688Z,88.12
2022-08-19T17:05:03.323Z,87.34
2022-08-19T17:07:33.103Z,87.08
2022-08-19T17:10:01.229Z,87.20
2022-08-19T17:12:32.200Z,86.50
2022-08-19T17:15:00.673Z,86.01
2022-08-19T17:17:29.363Z,85.90
2022-08-19T17:19:56.457Z,87.06
2022-08-19T17:22:23.741Z,87.69
2022-08-19T17:24:50.252Z,88.22
2022-08-19T17:27:16.763Z,87.21
2022-08-19T17:29:46.860Z,87.22
2022-08-19T17:32:13.886Z,88.43
2022-08-19T17:34:40.383Z,88.25
2022-08-19T17:37:06.890Z,87.48
2022-08-19T17:39:39.513Z,87.75
2022-08-19T17:42:06.756Z,88.06
2022-08-19T17:44:36.450Z,87.82
2022-08-19T17:47:04.156Z,88.33
2022-08-19T17:49:30.671Z,89.05
2022-08-19T17:52:00.471Z,87.26
2022-08-19T17:54:33.348Z,86.60
2022-08-19T17:57:01.245Z,86.87
2022-08-19T17:59:29.921Z,86.92
2022-08-19T18:01:57.169Z,86.79
2022-08-19T18:04:25.850Z,87.39
2022-08-19T18:06:55.019Z,86.80
2022-08-19T18:09:27.275Z,87.40
2022-08-19T18:11:56.852Z,87.25
2022-08-19T18:14:32.829Z,87.90
2022-08-19T18:17:05.864Z,88.14
2022-08-19T18:19:42.252Z,88.10
2022-08-19T18:22:11.589Z,88.12
2022-08-19T18:24:42.292Z,88.60
2022-08-19T18:27:09.836Z,87.80
2022-08-19T18:29:37.930Z,87.83
2022-08-19T18:32:04.674Z,88.14
2022-08-19T18:34:31.174Z,88.07
2022-08-19T18:36:57.683Z,88.50
2022-08-19T18:39:45.085Z,88.94
2022-08-19T18:42:37.012Z,88.68
2022-08-19T18:45:23.797Z,87.98
2022-08-19T18:48:26.933Z,88.10
2022-08-19T18:50:59.779Z,88.97
2022-08-19T18:53:28.679Z,88.57
2022-08-19T18:55:55.798Z,88.07
2022-08-19T18:58:26.634Z,87.80
2022-08-19T19:00:56.769Z,88.08
2022-08-19T19:03:24.345Z,88.87
2022-08-19T19:05:52.138Z,88.89
2022-08-19T19:08:18.765Z,88.99
2022-08-19T19:10:45.385Z,88.92
2022-08-19T19:13:16.319Z,89.27
2022-08-19T19:15:43.899Z,89.01
2022-08-19T19:18:13.451Z,88.92
2022-08-19T19:20:40.884Z,88.92
2022-08-19T19:23:07.635Z,89.33
2022-08-19T19:25:49.928Z,88.70
2022-08-19T19:28:17.423Z,88.68
2022-08-19T19:30:43.964Z,88.94
2022-08-19T19:33:10.812Z,89.54
2022-08-19T19:35:37.317Z,89.74
2022-08-19T19:38:03.874Z,89.29
2022-08-19T19:40:30.458Z,89.24
2022-08-19T19:42:57.077Z,89.97
2022-08-19T19:45:24.785Z,89.01
2022-08-19T19:47:51.322Z,89.43
2022-08-19T19:50:19.395Z,88.99
2022-08-19T19:52:46.622Z,90.03
2022-08-19T19:55:17.885Z,89.52
2022-08-19T19:57:48.871Z,89.57
2022-08-19T20:00:18.643Z,88.95
2022-08-19T20:02:49.612Z,88.94
2022-08-19T20:05:16.966Z,88.64
2022-08-19T20:08:02.023Z,88.87
2022-08-19T20:10:28.538Z,89.07
2022-08-19T20:12:56.684Z,88.66
2022-08-19T20:15:24.064Z,88.88
2022-08-19T20:17:51.025Z,89.08
2022-08-19T20:20:19.159Z,88.92
2022-08-19T20:22:47.496Z,88.98
2022-08-19T20:25:16.987Z,88.96
2022-08-19T20:27:44.050Z,88.88
2022-08-19T20:30:19.318Z,88.61
2022-08-19T20:32:47.620Z,88.26
2022-08-19T20:35:19.701Z,88.84
2022-08-19T20:37:46.558Z,88.66
2022-08-19T20:40:14.510Z,88.79
2022-08-19T20:42:43.213Z,88.42
2022-08-19T20:45:29.449Z,88.40
2022-08-19T20:48:02.653Z,88.42
2022-08-19T20:50:30.350Z,88.40
2022-08-19T20:52:57.821Z,89.35
2022-08-19T20:55:25.792Z,89.32
2022-08-19T20:57:52.299Z,90.13
2022-08-19T21:00:19.120Z,89.42
2022-08-19T21:02:46.796Z,89.38
2022-08-19T21:05:14.835Z,89.28
2022-08-19T21:07:41.547Z,89.96
2022-08-19T21:10:08.363Z,89.63
2022-08-19T21:12:35.008Z,89.35
2022-08-19T21:15:01.592Z,89.93
2022-08-19T21:17:28.092Z,89.66
2022-08-19T21:19:54.618Z,89.52
2022-08-19T21:22:21.196Z,90.36
2022-08-19T21:24:47.867Z,90.33
2022-08-19T21:27:14.367Z,90.13
2022-08-19T21:29:42.056Z,89.63
2022-08-19T21:32:11.112Z,89.88
2022-08-19T21:34:41.641Z,90.38
2022-08-19T21:37:14.002Z,90.14
2022-08-19T21:39:53.483Z,90.40
2022-08-19T21:42:20.920Z,90.59
2022-08-19T21:44:47.547Z,90.42
2022-08-19T21:47:14.052Z,90.45
2022-08-19T21:49:40.686Z,90.76
2022-08-19T21:52:08.152Z,90.15
2022-08-19T21:54:38.250Z,89.84
2022-08-19T21:57:10.263Z,90.30
2022-08-19T21:59:39.794Z,90.61
2022-08-19T22:02:19.565Z,90.11
2022-08-19T22:04:48.449Z,90.44
2022-08-19T22:07:15.499Z,90.67
2022-08-19T22:09:42.905Z,90.27
2022-08-19T22:12:20.909Z,90.47
2022-08-19T22:14:47.419Z,90.11
2022-08-19T22:17:14.584Z,89.73
2022-08-19T22:19:41.277Z,89.95
2022-08-19T22:22:08.165Z,89.81
2022-08-19T22:24:34.688Z,89.70
2022-08-19T22:27:02.311Z,89.53
2022-08-19T22:29:34.138Z,89.36
2022-08-19T22:32:01.504Z,89.63
2022-08-19T22:34:48.022Z,89.47
2022-08-19T22:37:14.525Z,89.73
2022-08-19T22:39:41.121Z,89.76
2022-08-19T22:42:07.726Z,89.74
2022-08-19T22:44:34.240Z,90.08
2022-08-19T22:47:02.165Z,90.15
2022-08-19T22:49:28.726Z,89.94
2022-08-19T22:52:13.772Z,89.88
2022-08-19T22:54:40.305Z,89.67
2022-08-19T22:57:06.807Z,89.87
2022-08-19T22:59:33.317Z,90.01
2022-08-19T23:01:59.842Z,90.48
2022-08-19T23:04:26.464Z,90.41
2022-08-19T23:06:53.275Z,89.96
2022-08-19T23:09:19.929Z,89.85
2022-08-19T23:11:50.065Z,90.06
2022-08-19T23:14:18.830Z,90.10
2022-08-19T23:16:50.756Z,90.32
2022-08-19T23:19:19.082Z,90.29
2022-08-19T23:21:45.583Z,90.00
2022-08-19T23:24:12.137Z,90.90
2022-08-19T23:26:59.366Z,90.82
2022-08-19T23:29:44.147Z,89.95
2022-08-19T23:32:10.653Z,90.63
2022-08-19T23:34:37.550Z,90.23
2022-08-19T23:37:04.100Z,90.32
2022-08-19T23:39:31.086Z,90.50
2022-08-19T23:41:57.571Z,90.92
2022-08-19T23:44:24.661Z,91.11
2022-08-19T23:46:55.114Z,90.87
2022-08-19T23:49:23.058Z,91.01
2022-08-19T23:51:49.620Z,90.63
2022-08-19T23:54:16.128Z,90.91
2022-08-19T23:56:42.677Z,91.15
2022-08-19T23:59:09.187Z,91.50
